createdAt,value
2018-06-19T00:01:15.204Z,4.30
2018-06-19T00:03:43.764Z,4.30
2018-06-19T00:06:12.203Z,5.10
2018-06-19T00:08:40.585Z,4.60
2018-06-19T00:11:09.838Z,4.53
2018-06-19T00:13:38.210Z,4.93
2018-06-19T00:16:06.651Z,4.93
2018-06-19T00:18:37.744Z,5.33
2018-06-19T00:21:12.055Z,4.40
2018-06-19T00:23:40.443Z,4.30
2018-06-19T00:26:08.875Z,4.77
2018-06-19T00:28:40.180Z,4.93
2018-06-19T00:31:08.608Z,4.60
2018-06-19T00:33:37.007Z,4.60
2018-06-19T00:36:05.389Z,4.10
2018-06-19T00:38:33.783Z,3.87
2018-06-19T00:41:02.485Z,3.97
2018-06-19T00:43:30.891Z,4.07
2018-06-19T00:45:59.904Z,4.20
2018-06-19T00:48:28.302Z,5.03
2018-06-19T00:50:56.933Z,4.37
2018-06-19T00:53:25.355Z,4.60
2018-06-19T00:55:53.769Z,5.40
2018-06-19T00:58:22.167Z,5.27
2018-06-19T01:00:50.548Z,5.00
2018-06-19T01:03:18.991Z,4.80
2018-06-19T01:05:47.403Z,4.30
2018-06-19T01:08:15.815Z,4.60
2018-06-19T01:10:43.911Z,4.97
2018-06-19T01:13:12.319Z,4.67
2018-06-19T01:15:40.711Z,4.57
2018-06-19T01:18:09.193Z,5.00
2018-06-19T01:20:37.583Z,5.13
2018-06-19T01:23:06.140Z,5.23
2018-06-19T01:25:34.551Z,5.40
2018-06-19T01:28:02.938Z,4.87
2018-06-19T01:30:31.348Z,4.67
2018-06-19T01:32:59.739Z,4.80
2018-06-19T01:35:28.152Z,4.20
2018-06-19T01:37:56.571Z,4.70
2018-06-19T01:40:25.016Z,4.90
2018-06-19T01:42:53.418Z,4.90
2018-06-19T01:45:21.827Z,5.00
2018-06-19T01:47:49.919Z,4.50
2018-06-19T01:50:18.381Z,5.33
2018-06-19T01:52:46.760Z,4.10
2018-06-19T01:55:15.171Z,4.20
2018-06-19T01:57:43.572Z,4.30
2018-06-19T02:00:12.000Z,5.30
2018-06-19T02:02:40.388Z,4.00
2018-06-19T02:05:08.820Z,4.63
2018-06-19T02:07:37.212Z,5.03
2018-06-19T02:10:05.617Z,4.40
2018-06-19T02:12:34.011Z,5.07
2018-06-19T02:15:02.388Z,4.50
2018-06-19T02:17:30.795Z,4.30
2018-06-19T02:19:59.167Z,4.83
2018-06-19T02:22:27.551Z,5.10
2018-06-19T02:24:55.959Z,4.70
2018-06-19T02:27:24.379Z,5.37
2018-06-19T02:29:52.751Z,5.20
2018-06-19T02:32:21.157Z,4.60
2018-06-19T02:34:49.524Z,4.60
2018-06-19T02:37:17.919Z,4.30
2018-06-19T02:39:46.309Z,4.50
2018-06-19T02:42:14.419Z,4.80
2018-06-19T02:44:42.801Z,4.80
2018-06-19T02:47:11.203Z,4.43
2018-06-19T02:49:39.581Z,4.77
2018-06-19T02:52:07.995Z,5.17
2018-06-19T02:54:36.373Z,4.57
2018-06-19T02:57:04.870Z,4.50
2018-06-19T02:59:33.239Z,4.53
2018-06-19T03:02:01.632Z,4.57
2018-06-19T03:04:30.060Z,4.70
2018-06-19T03:06:58.443Z,4.40
2018-06-19T03:09:26.856Z,4.10
2018-06-19T03:11:55.255Z,4.33
2018-06-19T03:14:23.789Z,4.50
2018-06-19T03:16:52.191Z,3.57
2018-06-19T03:19:20.624Z,4.63
2018-06-19T03:21:49.014Z,5.57
2018-06-19T03:24:17.415Z,4.70
2018-06-19T03:26:45.955Z,5.03
2018-06-19T03:29:14.356Z,5.13
2018-06-19T03:31:42.451Z,5.10
2018-06-19T03:34:10.868Z,4.53
2018-06-19T03:36:39.260Z,4.57
2018-06-19T03:39:09.512Z,5.70
2018-06-19T03:41:37.943Z,5.60
2018-06-19T03:44:06.371Z,4.80
2018-06-19T03:46:34.748Z,5.03
2018-06-19T03:49:03.664Z,5.00
2018-06-19T03:51:32.231Z,4.40
2018-06-19T03:54:00.843Z,4.53
2018-06-19T03:56:29.284Z,4.57
2018-06-19T03:58:57.683Z,4.63
2018-06-19T04:01:26.075Z,4.87
2018-06-19T04:03:54.596Z,3.50
2018-06-19T04:06:23.180Z,4.20
2018-06-19T04:08:51.584Z,4.40
2018-06-19T04:11:20.008Z,4.10
2018-06-19T04:13:48.417Z,4.47
2018-06-19T04:16:16.844Z,4.20
2018-06-19T04:18:45.299Z,4.97
2018-06-19T04:21:13.712Z,4.57
2018-06-19T04:23:42.109Z,5.10
2018-06-19T04:26:10.542Z,4.90
2018-06-19T04:28:38.937Z,6.03
2018-06-19T04:31:10.399Z,5.27
2018-06-19T04:33:38.793Z,4.13
2018-06-19T04:36:07.233Z,4.37
2018-06-19T04:38:35.650Z,4.30
2018-06-19T04:41:04.267Z,4.47
2018-06-19T04:43:32.671Z,4.20
2018-06-19T04:46:01.109Z,4.27
2018-06-19T04:48:29.909Z,4.50
2018-06-19T04:50:58.372Z,4.00
2018-06-19T04:53:26.779Z,3.90
2018-06-19T04:55:55.200Z,3.77
2018-06-19T04:58:23.635Z,3.70
2018-06-19T05:00:52.063Z,4.23
2018-06-19T05:03:20.467Z,5.20
2018-06-19T05:05:48.871Z,3.60
2018-06-19T05:08:17.256Z,4.10
2018-06-19T05:10:45.661Z,4.50
2018-06-19T05:13:14.045Z,4.20
2018-06-19T05:15:42.471Z,3.73
2018-06-19T05:18:10.864Z,3.90
2018-06-19T05:20:39.252Z,4.37
2018-06-19T05:23:07.674Z,3.60
2018-06-19T05:25:36.072Z,3.80
2018-06-19T05:28:04.517Z,3.30
2018-06-19T05:30:32.900Z,3.57
2018-06-19T05:33:01.303Z,3.73
2018-06-19T05:35:29.690Z,3.40
2018-06-19T05:37:58.111Z,3.30
2018-06-19T05:40:26.567Z,4.10
2018-06-19T05:42:54.972Z,3.33
2018-06-19T05:45:23.360Z,3.90
2018-06-19T05:47:51.769Z,2.80
2018-06-19T05:50:20.155Z,3.43
2018-06-19T05:52:48.566Z,3.57
2018-06-19T05:55:16.961Z,3.40
2018-06-19T05:57:45.408Z,3.70
2018-06-19T06:00:13.815Z,2.83
2018-06-19T06:02:42.211Z,2.83
2018-06-19T06:05:10.628Z,3.53
2018-06-19T06:07:39.031Z,3.30
2018-06-19T06:10:07.461Z,3.50
2018-06-19T06:12:35.864Z,4.10
2018-06-19T06:15:04.328Z,3.37
2018-06-19T06:17:32.736Z,3.57
2018-06-19T06:20:01.136Z,2.97
2018-06-19T06:22:29.555Z,3.20
2018-06-19T06:24:57.936Z,3.10
2018-06-19T06:27:26.364Z,3.43
2018-06-19T06:29:54.749Z,2.70
2018-06-19T06:32:23.123Z,3.07
2018-06-19T06:34:51.523Z,2.50
2018-06-19T06:37:19.908Z,3.27
2018-06-19T06:39:48.024Z,3.13
2018-06-19T06:42:16.405Z,2.57
2018-06-19T06:44:44.823Z,3.10
2018-06-19T06:47:13.212Z,3.60
2018-06-19T06:49:41.608Z,2.73
2018-06-19T06:52:10.036Z,2.87
2018-06-19T06:54:38.440Z,2.90
2018-06-19T06:57:06.827Z,2.90
2018-06-19T06:59:35.231Z,2.80
2018-06-19T07:02:03.627Z,2.97
2018-06-19T07:04:32.048Z,2.77
2018-06-19T07:07:00.588Z,2.20
2018-06-19T07:09:29.015Z,2.60
2018-06-19T07:11:57.456Z,3.10
2018-06-19T07:14:25.924Z,2.67
2018-06-19T07:16:54.294Z,2.40
2018-06-19T07:19:22.743Z,2.63
2018-06-19T07:21:51.081Z,2.57
2018-06-19T07:24:19.518Z,2.80
2018-06-19T07:26:48.032Z,2.20
2018-06-19T07:29:16.453Z,2.10
2018-06-19T07:31:44.867Z,1.93
2018-06-19T07:34:13.244Z,2.67
2018-06-19T07:36:41.728Z,2.27
2018-06-19T07:39:10.872Z,2.10
2018-06-19T07:41:39.293Z,2.10
2018-06-19T07:44:07.698Z,2.57
2018-06-19T07:46:36.339Z,2.20
2018-06-19T07:49:04.737Z,2.10
2018-06-19T07:51:33.136Z,2.00
2018-06-19T07:54:01.868Z,2.30
2018-06-19T07:56:30.292Z,2.37
2018-06-19T07:58:58.704Z,2.50
2018-06-19T08:01:27.108Z,2.00
2018-06-19T08:03:55.311Z,2.47
2018-06-19T08:06:23.715Z,2.53
2018-06-19T08:08:52.107Z,1.93
2018-06-19T08:11:20.507Z,2.37
2018-06-19T08:13:48.888Z,2.27
2018-06-19T08:16:17.301Z,2.60
2018-06-19T08:18:45.717Z,1.77
2018-06-19T08:21:14.099Z,1.70
2018-06-19T08:23:42.485Z,2.10
2018-06-19T08:26:10.909Z,2.20
2018-06-19T08:28:39.019Z,2.20
2018-06-19T08:31:07.617Z,1.93
2018-06-19T08:33:36.021Z,2.40
2018-06-19T08:36:04.412Z,1.93
2018-06-19T08:38:32.816Z,2.60
2018-06-19T08:41:01.197Z,2.10
2018-06-19T08:43:29.599Z,2.57
2018-06-19T08:45:57.975Z,2.30
2018-06-19T08:48:26.396Z,2.57
2018-06-19T08:50:54.916Z,2.10
2018-06-19T08:53:23.323Z,2.30
2018-06-19T08:55:51.715Z,2.10
2018-06-19T08:58:20.117Z,2.30
2018-06-19T09:00:48.501Z,2.70
2018-06-19T09:03:16.929Z,2.03
2018-06-19T09:05:52.092Z,2.40
2018-06-19T09:08:20.566Z,2.60
2018-06-19T09:10:48.961Z,2.53
2018-06-19T09:13:17.379Z,2.33
2018-06-19T09:15:45.800Z,2.10
2018-06-19T09:18:14.206Z,2.03
2018-06-19T09:20:42.598Z,2.20
2018-06-19T09:23:11.039Z,2.30
2018-06-19T09:25:39.428Z,2.53
2018-06-19T09:28:07.823Z,2.83
2018-06-19T09:30:36.210Z,2.40
2018-06-19T09:33:04.657Z,2.20
2018-06-19T09:35:33.044Z,2.30
2018-06-19T09:38:01.438Z,2.17
2018-06-19T09:40:29.869Z,2.40
2018-06-19T09:42:58.256Z,1.80
2018-06-19T09:45:26.678Z,2.40
2018-06-19T09:47:55.060Z,2.80
2018-06-19T09:50:23.480Z,2.80
2018-06-19T09:52:51.948Z,2.20
2018-06-19T09:55:20.349Z,2.57
2018-06-19T09:57:48.800Z,1.80
2018-06-19T10:00:22.276Z,2.13
2018-06-19T10:02:50.732Z,2.33
2018-06-19T10:05:19.188Z,2.97
2018-06-19T10:07:47.612Z,2.60
2018-06-19T10:10:16.028Z,2.60
2018-06-19T10:12:44.416Z,2.17
2018-06-19T10:15:12.847Z,2.20
2018-06-19T10:17:42.546Z,2.47
2018-06-19T10:20:10.980Z,2.33
2018-06-19T10:22:39.402Z,2.40
2018-06-19T10:25:08.000Z,2.33
2018-06-19T10:27:36.391Z,2.40
2018-06-19T10:30:05.228Z,2.50
2018-06-19T10:32:33.641Z,2.00
2018-06-19T10:35:02.114Z,2.50
2018-06-19T10:37:30.857Z,2.53
2018-06-19T10:39:59.889Z,2.30
2018-06-19T10:42:28.310Z,2.30
2018-06-19T10:44:56.697Z,2.40
2018-06-19T10:47:25.258Z,2.30
2018-06-19T10:49:53.656Z,2.40
2018-06-19T10:52:22.064Z,2.67
2018-06-19T10:54:50.448Z,2.43
2018-06-19T10:57:18.865Z,3.03
2018-06-19T10:59:46.964Z,2.23
2018-06-19T11:02:15.381Z,2.87
2018-06-19T11:04:43.804Z,2.73
2018-06-19T11:07:11.968Z,2.20
2018-06-19T11:09:40.376Z,2.97
2018-06-19T11:12:08.812Z,2.50
2018-06-19T11:14:37.205Z,2.17
2018-06-19T11:17:05.680Z,2.33
2018-06-19T11:19:34.135Z,2.80
2018-06-19T11:22:02.556Z,2.50
2018-06-19T11:24:30.967Z,2.60
2018-06-19T11:26:59.395Z,2.80
2018-06-19T11:29:27.835Z,2.27
2018-06-19T11:31:56.276Z,2.83
2018-06-19T11:34:24.683Z,2.33
2018-06-19T11:36:52.816Z,2.80
2018-06-19T11:39:21.224Z,2.73
2018-06-19T11:41:49.642Z,2.60
2018-06-19T11:44:18.076Z,2.70
2018-06-19T11:46:46.513Z,2.50
2018-06-19T11:49:14.945Z,2.43
2018-06-19T11:51:43.416Z,2.37
2018-06-19T11:54:11.870Z,2.37
2018-06-19T11:56:40.510Z,2.53
2018-06-19T11:59:08.943Z,3.00
2018-06-19T12:01:37.343Z,2.30
2018-06-19T12:04:05.815Z,2.40
2018-06-19T12:06:34.211Z,2.80
2018-06-19T12:09:02.687Z,2.60
2018-06-19T12:11:31.116Z,3.50
2018-06-19T12:13:59.540Z,2.43
2018-06-19T12:16:27.987Z,2.50
2018-06-19T12:19:02.933Z,3.20
2018-06-19T12:21:31.364Z,3.17
2018-06-19T12:23:59.854Z,2.60
2018-06-19T12:26:28.288Z,2.73
2018-06-19T12:28:56.707Z,2.23
2018-06-19T12:31:25.124Z,2.37
2018-06-19T12:33:53.479Z,2.43
2018-06-19T12:36:21.904Z,3.33
2018-06-19T12:38:50.339Z,2.70
2018-06-19T12:41:18.743Z,2.87
2018-06-19T12:43:47.168Z,2.87
2018-06-19T12:46:15.589Z,2.40
2018-06-19T12:48:44.004Z,2.80
2018-06-19T12:52:00.857Z,3.53
2018-06-19T12:54:38.997Z,2.67
2018-06-19T12:57:07.406Z,2.70
2018-06-19T12:59:35.840Z,2.63
2018-06-19T13:02:04.280Z,2.90
2018-06-19T13:04:44.152Z,3.10
2018-06-19T13:07:12.539Z,2.70
2018-06-19T13:09:40.980Z,2.83
2018-06-19T13:12:24.469Z,2.63
2018-06-19T13:14:52.911Z,2.80
2018-06-19T13:18:35.624Z,2.43
2018-06-19T13:21:04.093Z,2.70
2018-06-19T13:23:32.847Z,2.70
2018-06-19T13:26:01.400Z,3.07
2018-06-19T13:28:41.132Z,2.40
2018-06-19T13:31:20.980Z,2.40
2018-06-19T13:33:49.385Z,2.57
2018-06-19T13:36:17.816Z,2.60
2018-06-19T13:38:46.217Z,2.50
2018-06-19T13:41:27.227Z,2.33
2018-06-19T13:44:08.737Z,2.47
2018-06-19T13:46:37.145Z,2.57
2018-06-19T13:49:05.585Z,2.37
2018-06-19T13:51:34.015Z,2.40
2018-06-19T13:54:02.433Z,2.67
2018-06-19T13:57:45.844Z,2.80
2018-06-19T14:00:17.133Z,2.90
2018-06-19T14:02:45.558Z,3.23
2018-06-19T14:05:14.909Z,2.60
2018-06-19T14:08:05.075Z,2.43
2018-06-19T14:10:38.655Z,2.80
2018-06-19T14:13:07.067Z,2.93
2018-06-19T14:15:37.620Z,2.43
2018-06-19T14:18:06.471Z,2.67
2018-06-19T14:20:35.120Z,3.17
2018-06-19T14:23:10.203Z,2.73
2018-06-19T14:25:38.599Z,2.30
2018-06-19T14:28:07.068Z,3.30
2018-06-19T14:30:35.460Z,2.50
2018-06-19T14:33:03.922Z,2.53
2018-06-19T14:35:32.318Z,2.87
2018-06-19T14:38:00.722Z,3.03
2018-06-19T14:40:29.190Z,2.57
2018-06-19T14:42:57.616Z,2.87
2018-06-19T14:45:26.046Z,2.77
2018-06-19T14:47:54.437Z,2.50
2018-06-19T14:50:22.862Z,2.20
2018-06-19T14:52:51.248Z,3.00
2018-06-19T14:55:19.652Z,2.93
2018-06-19T14:57:48.044Z,3.10
2018-06-19T15:00:16.459Z,3.33
2018-06-19T15:02:44.841Z,2.87
2018-06-19T15:05:13.272Z,2.47
2018-06-19T15:07:46.993Z,2.77
2018-06-19T15:10:15.773Z,2.70
2018-06-19T15:12:44.240Z,3.23
2018-06-19T15:15:12.659Z,3.53
2018-06-19T15:17:41.056Z,3.53
2018-06-19T15:20:09.468Z,2.60
2018-06-19T15:22:37.854Z,3.30
2018-06-19T15:25:06.301Z,2.93
2018-06-19T15:27:34.684Z,2.77
2018-06-19T15:30:03.185Z,3.03
2018-06-19T15:32:31.580Z,3.10
2018-06-19T15:34:59.999Z,3.33
2018-06-19T15:37:28.404Z,3.10
2018-06-19T15:39:56.805Z,3.23
2018-06-19T15:42:25.206Z,2.97
2018-06-19T15:44:53.607Z,2.67
2018-06-19T15:47:22.012Z,2.90
2018-06-19T15:49:50.482Z,3.53
2018-06-19T15:52:18.896Z,2.93
2018-06-19T15:54:47.431Z,3.60
2018-06-19T15:57:15.826Z,2.97
2018-06-19T15:59:44.399Z,3.30
2018-06-19T16:02:12.792Z,3.23
2018-06-19T16:04:41.223Z,3.20
2018-06-19T16:07:09.612Z,2.90
2018-06-19T16:09:38.024Z,2.60
2018-06-19T16:12:06.432Z,3.80
2018-06-19T16:14:34.826Z,3.07
2018-06-19T16:17:03.244Z,2.90
2018-06-19T16:19:31.339Z,3.40
2018-06-19T16:21:59.749Z,2.77
2018-06-19T16:24:28.144Z,2.73
2018-06-19T16:26:56.560Z,2.20
2018-06-19T16:29:25.000Z,2.93
2018-06-19T16:31:53.371Z,2.73
2018-06-19T16:34:21.755Z,2.97
2018-06-19T16:36:50.176Z,2.60
2018-06-19T16:39:18.568Z,2.63
2018-06-19T16:41:46.981Z,2.50
2018-06-19T16:44:15.364Z,2.10
2018-06-19T16:46:43.775Z,2.43
2018-06-19T16:49:12.169Z,2.50
2018-06-19T16:51:40.580Z,2.37
2018-06-19T16:54:08.968Z,2.60
2018-06-19T16:56:37.372Z,2.77
2018-06-19T16:59:05.769Z,2.93
2018-06-19T17:01:34.164Z,2.40
2018-06-19T17:04:02.603Z,2.77
2018-06-19T17:06:31.054Z,2.40
2018-06-19T17:08:59.443Z,2.43
2018-06-19T17:11:27.861Z,2.30
2018-06-19T17:13:56.253Z,2.17
2018-06-19T17:16:24.636Z,2.90
2018-06-19T17:18:53.038Z,2.73
2018-06-19T17:21:21.441Z,2.77
2018-06-19T17:23:49.843Z,2.53
2018-06-19T17:26:18.236Z,2.63
2018-06-19T17:28:46.644Z,2.20
2018-06-19T17:31:15.036Z,2.90
2018-06-19T17:33:43.444Z,2.70
2018-06-19T17:36:11.836Z,2.37
2018-06-19T17:38:40.232Z,2.77
2018-06-19T17:41:08.332Z,2.90
2018-06-19T17:43:36.738Z,3.13
2018-06-19T17:46:05.172Z,2.70
2018-06-19T17:48:33.600Z,2.90
2018-06-19T17:51:01.981Z,2.60
2018-06-19T17:53:30.397Z,3.57
2018-06-19T17:55:58.784Z,3.53
2018-06-19T17:58:27.201Z,3.90
2018-06-19T18:00:55.616Z,3.00
2018-06-19T18:03:24.062Z,3.10
2018-06-19T18:05:52.500Z,2.77
2018-06-19T18:08:20.934Z,2.67
2018-06-19T18:10:49.344Z,3.13
2018-06-19T18:13:17.772Z,3.20
2018-06-19T18:15:46.205Z,3.40
2018-06-19T18:18:14.661Z,2.57
2018-06-19T18:20:43.098Z,2.73
2018-06-19T18:23:11.543Z,2.93
2018-06-19T18:25:39.945Z,3.20
2018-06-19T18:28:08.415Z,3.40
2018-06-19T18:30:36.820Z,2.83
2018-06-19T18:33:05.288Z,3.20
2018-06-19T18:35:33.764Z,3.30
2018-06-19T18:38:02.167Z,3.00
2018-06-19T18:40:30.594Z,3.20
2018-06-19T18:42:59.007Z,3.40
2018-06-19T18:45:27.436Z,3.30
2018-06-19T18:47:55.839Z,3.03
2018-06-19T18:50:24.264Z,3.50
2018-06-19T18:52:52.688Z,2.90
2018-06-19T18:55:21.120Z,2.93
2018-06-19T18:57:49.535Z,3.57
2018-06-19T19:00:17.959Z,3.83
2018-06-19T19:02:46.363Z,3.33
2018-06-19T19:05:14.792Z,3.50
2018-06-19T19:07:43.199Z,3.13
2018-06-19T19:10:16.904Z,2.80
2018-06-19T19:12:45.286Z,3.20
2018-06-19T19:15:19.158Z,3.27
2018-06-19T19:17:52.911Z,3.80
2018-06-19T19:20:21.316Z,3.20
2018-06-19T19:22:49.708Z,3.70
2018-06-19T19:25:18.137Z,2.77
2018-06-19T19:27:51.984Z,4.07
2018-06-19T19:30:20.416Z,3.90
2018-06-19T19:32:48.805Z,3.33
2018-06-19T19:35:17.248Z,3.77
2018-06-19T19:37:50.714Z,3.00
2018-06-19T19:40:19.120Z,3.93
2018-06-19T19:42:47.564Z,3.47
2018-06-19T19:45:15.988Z,3.40
2018-06-19T19:47:49.844Z,4.13
2018-06-19T19:50:18.249Z,3.50
2018-06-19T19:52:46.846Z,3.13
2018-06-19T19:55:15.245Z,4.23
2018-06-19T19:57:48.920Z,3.83
2018-06-19T20:00:22.477Z,4.00
2018-06-19T20:02:50.864Z,4.23
2018-06-19T20:05:19.312Z,2.93
2018-06-19T20:07:47.696Z,3.53
2018-06-19T20:10:16.175Z,3.33
2018-06-19T20:12:44.290Z,4.47
2018-06-19T20:15:18.477Z,3.93
2018-06-19T20:17:46.992Z,3.20
2018-06-19T20:20:15.379Z,3.50
2018-06-19T20:22:43.759Z,3.40
2018-06-19T20:25:13.011Z,3.60
2018-06-19T20:27:41.395Z,3.43
2018-06-19T20:30:10.430Z,4.27
2018-06-19T20:32:38.914Z,3.40
2018-06-19T20:35:07.370Z,4.37
2018-06-19T20:37:35.783Z,3.50
2018-06-19T20:40:04.577Z,3.40
2018-06-19T20:42:33.001Z,2.90
2018-06-19T20:45:01.433Z,3.90
2018-06-19T20:47:30.291Z,4.20
2018-06-19T20:49:59.104Z,3.70
2018-06-19T20:52:28.097Z,3.23
2018-06-19T20:54:56.549Z,3.73
2018-06-19T20:57:24.966Z,3.60
2018-06-19T20:59:53.348Z,3.10
2018-06-19T21:02:21.756Z,3.70
2018-06-19T21:04:50.183Z,4.10
2018-06-19T21:07:18.620Z,4.00
2018-06-19T21:09:47.085Z,5.03
2018-06-19T21:12:16.012Z,4.10
2018-06-19T21:14:44.421Z,3.50
2018-06-19T21:17:12.835Z,3.50
2018-06-19T21:19:41.233Z,3.50
2018-06-19T21:22:09.660Z,3.47
2018-06-19T21:24:38.068Z,3.57
2018-06-19T21:27:07.026Z,4.00
2018-06-19T21:29:35.536Z,3.87
2018-06-19T21:32:04.053Z,3.20
2018-06-19T21:34:32.469Z,3.77
2018-06-19T21:37:00.916Z,3.70
2018-06-19T21:39:29.336Z,3.47
2018-06-19T21:41:57.747Z,3.53
2018-06-19T21:44:26.188Z,3.97
2018-06-19T21:46:54.647Z,3.47
2018-06-19T21:49:23.077Z,3.77
2018-06-19T21:51:51.481Z,3.43
2018-06-19T21:54:19.911Z,3.50
2018-06-19T21:56:48.304Z,3.70
2018-06-19T21:59:16.727Z,3.53
2018-06-19T22:01:45.140Z,3.33
2018-06-19T22:04:13.579Z,3.90
2018-06-19T22:06:41.984Z,3.50
2018-06-19T22:09:10.429Z,4.03
2018-06-19T22:11:38.865Z,3.83
2018-06-19T22:14:07.292Z,3.90
2018-06-19T22:16:35.688Z,3.53
2018-06-19T22:19:04.118Z,4.30
2018-06-19T22:21:32.516Z,3.83
2018-06-19T22:24:00.940Z,3.10
2018-06-19T22:26:29.346Z,4.10
2018-06-19T22:28:57.780Z,3.70
2018-06-19T22:31:26.188Z,4.07
2018-06-19T22:33:54.625Z,3.80
2018-06-19T22:36:23.041Z,3.93
2018-06-19T22:38:51.469Z,3.50
2018-06-19T22:41:19.873Z,3.63
2018-06-19T22:43:48.288Z,4.40
2018-06-19T22:46:16.686Z,3.43
2018-06-19T22:48:45.123Z,3.30
2018-06-19T22:51:13.566Z,3.67
2018-06-19T22:53:41.964Z,4.00
2018-06-19T22:56:10.391Z,3.60
2018-06-19T22:58:38.833Z,4.10
2018-06-19T23:01:07.255Z,3.80
2018-06-19T23:03:35.655Z,3.73
2018-06-19T23:06:04.107Z,3.77
2018-06-19T23:08:34.753Z,3.80
2018-06-19T23:11:03.466Z,4.10
2018-06-19T23:13:31.851Z,3.67
2018-06-19T23:16:00.256Z,3.50
2018-06-19T23:18:28.640Z,3.77
2018-06-19T23:20:57.035Z,4.37
2018-06-19T23:23:25.439Z,4.23
2018-06-19T23:25:53.849Z,4.00
2018-06-19T23:30:58.423Z,4.10
2018-06-19T23:33:26.819Z,5.60
2018-06-19T23:35:55.225Z,2.80
2018-06-19T23:38:23.620Z,3.83
2018-06-19T23:40:52.045Z,4.10
2018-06-19T23:43:20.445Z,2.87
2018-06-19T23:45:48.848Z,4.37
2018-06-19T23:48:17.231Z,4.10
2018-06-19T23:50:45.627Z,3.53
2018-06-19T23:53:14.008Z,3.80
2018-06-19T23:55:42.471Z,3.93
2018-06-19T23:58:10.852Z,4.10
